KCDC/CDC METAR and TAF weather

Enter ICAO airport designator
Station Type Date Time Source
KCDC METAR 2020/07/04 01:53 UTC NOAA

KCDC 040153Z AUTO 21013KT 10SM CLR 28/01 A3014 RMK AO2 SLP117 T02830011


Station Type Date Time Source
KCDC Decoded METAR 2020/07/04 01:53 UTC NOAA

CEDAR CITY MUN AIRPORT, UT, United States (KCDC) 37-42N 113-06W 1714M
Jul 03, 2020 - 09:53 PM EDT / 2020.07.04 0153 UTC
Wind: from the SSW (210 degrees) at 15 MPH (13 KT):0
Visibility: 10 mile(s):0
Sky conditions: clear
Temperature: 82.9 F (28.3 C)
Dew Point: 34.0 F (1.1 C)
Relative Humidity: 17%
Pressure (altimeter): 30.14 in. Hg (1020 hPa)
ob: KCDC 040153Z AUTO 21013KT 10SM CLR 28/01 A3014 RMK AO2 SLP117 T02830011
cycle: 2

Station Type Date Time Source
KCDC TAF 2020/07/03 21:48 UTC NOAA

TAF
AMD KCDC 032046Z 0321/0418 22014G24KT P6SM FEW090
FM040300 17006KT P6SM FEW090
FM041600 21011KT P6SM SKC

Example: see airport list